createdAt,value
2022-11-29T00:00:09.365Z,96986.58
2022-11-29T00:03:03.191Z,96989.27
2022-11-29T00:05:35.844Z,96990.77
2022-11-29T00:08:05.964Z,96990.10
2022-11-29T00:10:41.172Z,96990.05
2022-11-29T00:13:10.936Z,96991.53
2022-11-29T00:15:40.686Z,96994.02
2022-11-29T00:18:10.425Z,96990.86
2022-11-29T00:20:40.673Z,96987.92
2022-11-29T00:23:10.294Z,96988.52
2022-11-29T00:25:40.177Z,96984.50
2022-11-29T00:28:09.830Z,96981.88
2022-11-29T00:30:39.892Z,96980.69
2022-11-29T00:33:09.574Z,96982.60
2022-11-29T00:35:39.299Z,96979.91
2022-11-29T00:38:08.716Z,96983.66
2022-11-29T00:40:38.477Z,96978.59
2022-11-29T00:43:08.425Z,96976.83
2022-11-29T00:45:37.558Z,96975.89
2022-11-29T00:48:07.412Z,96978.25
2022-11-29T00:50:37.224Z,96973.45
2022-11-29T00:53:07.124Z,96972.33
2022-11-29T00:55:36.912Z,96967.94
2022-11-29T00:58:05.455Z,96963.13
2022-11-29T01:00:34.755Z,96965.55
2022-11-29T01:03:04.811Z,96968.94
2022-11-29T01:05:34.954Z,96971.31
2022-11-29T01:08:03.863Z,96965.54
2022-11-29T01:10:33.007Z,96964.39
2022-11-29T01:13:03.222Z,96963.00
2022-11-29T01:15:33.627Z,96964.02
2022-11-29T01:18:03.423Z,96961.96
2022-11-29T01:20:33.161Z,96954.10
2022-11-29T01:23:03.209Z,96952.80
2022-11-29T01:25:32.966Z,96948.59
2022-11-29T01:28:02.616Z,96952.52
2022-11-29T01:30:32.612Z,96954.52
2022-11-29T01:33:02.722Z,96953.98
2022-11-29T01:35:32.407Z,96948.70
2022-11-29T01:38:00.913Z,96948.23
2022-11-29T01:40:30.637Z,96940.11
2022-11-29T01:43:00.328Z,96937.63
2022-11-29T01:45:29.637Z,96939.95
2022-11-29T01:47:59.345Z,96938.45
2022-11-29T01:50:29.075Z,96937.09
2022-11-29T01:52:59.313Z,96937.08
2022-11-29T01:55:31.772Z,96939.67
2022-11-29T01:58:01.842Z,96936.63
2022-11-29T02:00:31.705Z,96935.64
2022-11-29T02:03:10.652Z,96938.61
2022-11-29T02:05:49.428Z,96938.62
2022-11-29T02:08:31.005Z,96943.36
2022-11-29T02:11:14.565Z,96947.41
2022-11-29T02:14:00.252Z,96942.45
2022-11-29T02:16:58.034Z,96943.05
2022-11-29T02:19:56.030Z,96939.79
2022-11-29T02:22:40.523Z,96942.37
2022-11-29T02:25:38.451Z,96940.64
2022-11-29T02:28:13.838Z,96937.98
2022-11-29T02:30:56.844Z,96941.71
2022-11-29T02:34:13.353Z,96942.02
2022-11-29T02:37:13.871Z,96947.23
2022-11-29T02:40:14.129Z,96948.48
2022-11-29T02:43:13.193Z,96944.88
2022-11-29T02:46:04.117Z,96946.79
2022-11-29T02:49:08.574Z,96952.30
2022-11-29T02:52:08.719Z,96955.00
2022-11-29T02:54:49.775Z,96951.66
2022-11-29T02:58:10.773Z,96954.67
2022-11-29T03:00:52.726Z,96957.18
2022-11-29T03:03:29.023Z,96952.93
2022-11-29T03:06:41.002Z,96954.63
2022-11-29T03:09:11.640Z,96960.45
2022-11-29T03:11:51.195Z,96958.98
2022-11-29T03:14:32.051Z,96962.94
2022-11-29T03:17:09.907Z,96965.98
2022-11-29T03:19:52.852Z,96967.40
2022-11-29T03:22:59.798Z,96968.32
2022-11-29T03:25:52.302Z,96971.56
2022-11-29T03:28:29.853Z,96972.26
2022-11-29T03:30:59.757Z,96968.98
2022-11-29T03:33:56.916Z,96973.52
2022-11-29T03:36:52.029Z,96975.45
2022-11-29T03:39:45.034Z,96974.84
2022-11-29T03:42:29.725Z,96975.86
2022-11-29T03:45:20.108Z,96975.33
2022-11-29T03:47:57.399Z,96977.45
2022-11-29T03:50:54.910Z,96975.77
2022-11-29T03:53:50.515Z,96979.84
2022-11-29T03:56:32.365Z,96980.20
2022-11-29T03:59:15.169Z,96976.71
2022-11-29T04:02:28.879Z,96979.67
2022-11-29T04:05:26.896Z,96982.83
2022-11-29T04:08:21.542Z,96983.08
2022-11-29T04:11:09.471Z,96979.77
2022-11-29T04:13:53.361Z,96984.13
2022-11-29T04:16:32.454Z,96984.56
2022-11-29T04:19:45.166Z,96983.10
2022-11-29T04:22:42.964Z,96984.94
2022-11-29T04:25:30.920Z,96984.73
2022-11-29T04:28:18.967Z,96977.08
2022-11-29T04:31:18.178Z,96982.66
2022-11-29T04:34:26.012Z,96984.52
2022-11-29T04:37:13.089Z,96982.52
2022-11-29T04:40:00.208Z,96989.30
2022-11-29T04:42:51.815Z,96989.46
2022-11-29T04:46:06.530Z,96991.95
2022-11-29T04:48:51.292Z,96993.88
2022-11-29T04:51:40.242Z,96988.74
2022-11-29T04:54:35.889Z,96997.80
2022-11-29T04:57:15.340Z,96999.72
2022-11-29T05:00:16.039Z,96999.46
2022-11-29T05:03:22.707Z,96996.10
2022-11-29T05:06:05.231Z,96996.55
2022-11-29T05:09:10.411Z,96996.87
2022-11-29T05:12:28.629Z,97002.75
2022-11-29T05:15:39.816Z,97001.33
2022-11-29T05:18:54.654Z,97003.19
2022-11-29T05:22:00.725Z,97004.52
2022-11-29T05:24:42.636Z,97005.80
2022-11-29T05:27:23.971Z,97006.46
2022-11-29T05:30:08.480Z,97007.98
2022-11-29T05:32:55.069Z,97007.16
2022-11-29T05:35:53.842Z,97007.16
2022-11-29T05:38:58.487Z,97006.44
2022-11-29T05:41:57.227Z,97009.52
2022-11-29T05:44:36.283Z,97007.65
2022-11-29T05:47:10.449Z,97013.93
2022-11-29T05:50:06.511Z,97014.89
2022-11-29T05:52:47.595Z,97019.44
2022-11-29T05:55:41.787Z,97022.29
2022-11-29T05:58:38.677Z,97021.73
2022-11-29T06:01:19.851Z,97019.33
2022-11-29T06:04:22.752Z,97021.63
2022-11-29T06:07:12.484Z,97026.23
2022-11-29T06:09:51.921Z,97020.98
2022-11-29T06:12:23.856Z,97023.84
2022-11-29T06:15:20.223Z,97026.72
2022-11-29T06:18:31.971Z,97026.05
2022-11-29T06:21:24.951Z,97028.49
2022-11-29T06:24:01.757Z,97025.36
2022-11-29T06:26:48.779Z,97024.85
2022-11-29T06:29:40.517Z,97020.30
2022-11-29T06:32:41.142Z,97022.61
2022-11-29T06:35:47.212Z,97023.93
2022-11-29T06:38:23.542Z,97027.73
2022-11-29T06:41:00.215Z,97025.98
2022-11-29T06:43:33.976Z,97019.30
2022-11-29T06:46:16.558Z,97023.90
2022-11-29T06:49:09.180Z,97027.02
2022-11-29T06:51:52.345Z,97023.52
2022-11-29T06:54:38.246Z,97023.73
2022-11-29T06:57:18.425Z,97023.38
2022-11-29T07:00:12.035Z,97022.00
2022-11-29T07:03:11.557Z,97018.76
2022-11-29T07:05:41.397Z,97018.52
2022-11-29T07:08:23.598Z,97012.33
2022-11-29T07:10:55.883Z,97013.95
2022-11-29T07:13:26.021Z,97019.55
2022-11-29T07:16:12.471Z,97018.59
2022-11-29T07:19:17.190Z,97016.11
2022-11-29T07:22:31.503Z,97013.35
2022-11-29T07:25:29.710Z,97013.51
2022-11-29T07:28:27.278Z,97014.61
2022-11-29T07:31:17.937Z,97013.50
2022-11-29T07:34:34.186Z,97015.80
2022-11-29T07:37:36.552Z,97014.43
2022-11-29T07:40:23.709Z,97015.38
2022-11-29T07:43:08.274Z,97009.32
2022-11-29T07:45:39.726Z,97008.39
2022-11-29T07:48:13.394Z,97010.48
2022-11-29T07:50:42.049Z,97013.84
2022-11-29T07:53:20.635Z,97017.15
2022-11-29T07:55:50.690Z,97013.56
2022-11-29T07:58:19.610Z,97010.27
2022-11-29T08:00:49.702Z,97004.06
2022-11-29T08:03:19.390Z,97002.58
2022-11-29T08:05:48.629Z,97004.11
2022-11-29T08:08:17.980Z,96999.66
2022-11-29T08:10:47.567Z,96998.66
2022-11-29T08:13:21.143Z,96995.11
2022-11-29T08:15:50.841Z,96997.23
2022-11-29T08:18:19.730Z,96995.70
2022-11-29T08:20:48.231Z,96991.95
2022-11-29T08:23:16.695Z,96997.37
2022-11-29T08:25:46.380Z,96994.87
2022-11-29T08:28:16.512Z,96995.94
2022-11-29T08:30:46.722Z,96992.04
2022-11-29T08:33:16.522Z,96994.76
2022-11-29T08:35:46.411Z,96992.02
2022-11-29T08:38:15.722Z,96991.79
2022-11-29T08:40:45.317Z,96987.23
2022-11-29T08:43:15.353Z,96981.88
2022-11-29T08:45:45.362Z,96981.96
2022-11-29T08:48:15.060Z,96983.67
2022-11-29T08:50:44.920Z,96979.08
2022-11-29T08:53:31.995Z,96976.31
2022-11-29T08:56:08.485Z,96972.20
2022-11-29T08:58:51.727Z,96972.21
2022-11-29T09:01:22.290Z,96967.24
2022-11-29T09:04:00.567Z,96960.79
2022-11-29T09:06:34.711Z,96954.98
2022-11-29T09:09:03.885Z,96955.56
2022-11-29T09:11:35.648Z,96949.39
2022-11-29T09:14:08.001Z,96949.62
2022-11-29T09:16:38.902Z,96946.27
2022-11-29T09:19:08.970Z,96939.10
2022-11-29T09:21:38.696Z,96942.23
2022-11-29T09:24:08.301Z,96937.11
2022-11-29T09:26:38.485Z,96934.84
2022-11-29T09:29:09.445Z,96932.34
2022-11-29T09:31:39.492Z,96925.84
2022-11-29T09:34:14.126Z,96925.80
2022-11-29T09:36:44.599Z,96926.90
2022-11-29T09:39:13.166Z,96927.77
2022-11-29T09:42:19.991Z,96924.77
2022-11-29T09:45:04.362Z,96917.88
2022-11-29T09:47:56.821Z,96918.88
2022-11-29T09:50:43.601Z,96915.33
2022-11-29T09:53:47.526Z,96912.52
2022-11-29T09:56:39.028Z,96914.14
2022-11-29T09:59:25.213Z,96913.96
2022-11-29T10:02:15.938Z,96909.02
2022-11-29T10:04:56.515Z,96899.31
2022-11-29T10:07:52.128Z,96898.59
2022-11-29T10:10:31.365Z,96902.51
2022-11-29T10:13:30.122Z,96901.35
2022-11-29T10:16:11.248Z,96901.70
2022-11-29T10:19:00.752Z,96897.03
2022-11-29T10:21:34.766Z,96897.36
2022-11-29T10:24:13.762Z,96895.86
2022-11-29T10:26:43.875Z,96894.70
2022-11-29T10:29:17.199Z,96884.71
2022-11-29T10:31:49.783Z,96879.56
2022-11-29T10:34:21.725Z,96885.86
2022-11-29T10:37:03.017Z,96881.49
2022-11-29T10:39:47.466Z,96881.84
2022-11-29T10:42:38.965Z,96878.71
2022-11-29T10:45:30.304Z,96879.16
2022-11-29T10:48:05.604Z,96879.64
2022-11-29T10:50:37.889Z,96872.93
2022-11-29T10:53:13.825Z,96869.63
2022-11-29T10:56:01.622Z,96869.16
2022-11-29T10:58:31.419Z,96868.27
2022-11-29T11:01:08.020Z,96865.75
2022-11-29T11:03:41.736Z,96863.10
2022-11-29T11:06:22.462Z,96869.39
2022-11-29T11:09:13.118Z,96870.58
2022-11-29T11:11:54.620Z,96868.27
2022-11-29T11:14:26.970Z,96862.95
2022-11-29T11:17:22.258Z,96859.61
2022-11-29T11:20:22.592Z,96857.23
2022-11-29T11:23:30.202Z,96861.23
2022-11-29T11:26:07.085Z,96856.61
2022-11-29T11:29:02.002Z,96858.61
2022-11-29T11:31:41.244Z,96860.30
2022-11-29T11:34:38.601Z,96864.63
2022-11-29T11:37:18.051Z,96862.61
2022-11-29T11:39:51.740Z,96865.62
2022-11-29T11:42:38.850Z,96864.31
2022-11-29T11:45:14.184Z,96861.05
2022-11-29T11:47:51.841Z,96858.00
2022-11-29T11:50:31.787Z,96858.13
2022-11-29T11:53:20.225Z,96860.47
2022-11-29T11:56:03.269Z,96857.15
2022-11-29T11:59:09.578Z,96857.55
2022-11-29T12:01:39.841Z,96857.37
2022-11-29T12:04:21.811Z,96859.20
2022-11-29T12:07:00.841Z,96855.46
2022-11-29T12:09:54.019Z,96853.58
2022-11-29T12:12:29.647Z,96853.25
2022-11-29T12:15:02.084Z,96851.89
2022-11-29T12:17:47.927Z,96853.92
2022-11-29T12:20:31.290Z,96848.17
2022-11-29T12:23:16.694Z,96848.17
2022-11-29T12:26:41.110Z,96845.88
2022-11-29T12:29:16.653Z,96851.52
2022-11-29T12:31:49.494Z,96852.66
2022-11-29T12:34:35.963Z,96852.35
2022-11-29T12:37:27.162Z,96853.38
2022-11-29T12:40:03.698Z,96860.70
2022-11-29T12:42:56.127Z,96852.06
2022-11-29T12:45:48.399Z,96853.95
2022-11-29T12:48:37.107Z,96856.38
2022-11-29T12:51:34.263Z,96857.73
2022-11-29T12:54:13.204Z,96860.44
2022-11-29T12:57:04.914Z,96862.61
2022-11-29T13:00:24.475Z,96863.59
2022-11-29T13:03:22.026Z,96869.25
2022-11-29T13:06:07.925Z,96865.60
2022-11-29T13:09:04.057Z,96867.34
2022-11-29T13:11:43.382Z,96868.63
2022-11-29T13:14:42.819Z,96866.67
2022-11-29T13:17:28.653Z,96869.83
2022-11-29T13:20:26.061Z,96870.10
2022-11-29T13:23:14.570Z,96872.54
2022-11-29T13:25:51.002Z,96873.70
2022-11-29T13:28:28.823Z,96878.52
2022-11-29T13:31:13.508Z,96882.81
2022-11-29T13:33:56.401Z,96881.61
2022-11-29T13:36:38.284Z,96884.75
2022-11-29T13:39:36.482Z,96883.84
2022-11-29T13:42:59.190Z,96884.83
2022-11-29T13:46:22.092Z,96891.30
2022-11-29T13:48:54.084Z,96890.33
2022-11-29T13:51:38.206Z,96893.48
2022-11-29T13:54:25.808Z,96891.61
2022-11-29T13:57:09.520Z,96892.27
2022-11-29T13:59:47.105Z,96893.17
2022-11-29T14:02:35.822Z,96895.75
2022-11-29T14:05:08.178Z,96891.12
2022-11-29T14:08:18.028Z,96891.17
2022-11-29T14:10:51.092Z,96888.09
2022-11-29T14:13:34.694Z,96890.64
2022-11-29T14:16:07.642Z,96892.81
2022-11-29T14:18:43.836Z,96894.19
2022-11-29T14:21:13.613Z,96896.27
2022-11-29T14:23:44.644Z,96898.46
2022-11-29T14:26:13.244Z,96898.86
2022-11-29T14:28:42.712Z,96900.33
2022-11-29T14:31:11.435Z,96898.45
2022-11-29T14:34:26.230Z,96902.86
2022-11-29T14:37:08.215Z,96909.75
2022-11-29T14:39:53.276Z,96908.55
2022-11-29T14:42:26.952Z,96910.00
2022-11-29T14:45:01.791Z,96909.65
2022-11-29T14:47:48.210Z,96911.19
2022-11-29T14:50:40.096Z,96912.19
2022-11-29T14:53:31.209Z,96909.86
2022-11-29T14:56:32.076Z,96914.04
2022-11-29T14:59:38.642Z,96914.91
2022-11-29T15:02:19.014Z,96917.05
2022-11-29T15:04:52.097Z,96922.98
2022-11-29T15:07:32.164Z,96925.52
2022-11-29T15:10:14.299Z,96928.50
2022-11-29T15:12:43.308Z,96929.70
2022-11-29T15:15:43.947Z,96932.89
2022-11-29T15:18:35.757Z,96933.66
2022-11-29T15:21:33.085Z,96935.51
2022-11-29T15:24:15.321Z,96936.39
2022-11-29T15:27:01.721Z,96936.29
2022-11-29T15:29:33.156Z,96941.56
2022-11-29T15:32:06.282Z,96939.91
2022-11-29T15:34:43.756Z,96943.38
2022-11-29T15:37:36.886Z,96949.49
2022-11-29T15:40:21.750Z,96955.26
2022-11-29T15:42:58.870Z,96960.84
2022-11-29T15:45:39.092Z,96962.80
2022-11-29T15:48:16.324Z,96970.77
2022-11-29T15:51:11.577Z,96972.76
2022-11-29T15:53:49.394Z,96974.48
2022-11-29T15:56:38.839Z,96973.71
2022-11-29T15:59:44.896Z,96979.75
2022-11-29T16:02:28.219Z,96984.08
2022-11-29T16:05:04.053Z,96982.27
2022-11-29T16:07:35.487Z,96980.59
2022-11-29T16:10:20.326Z,96981.28
2022-11-29T16:13:01.042Z,96988.92
2022-11-29T16:15:39.141Z,96986.82
2022-11-29T16:18:17.704Z,96991.28
2022-11-29T16:21:01.255Z,96993.16
2022-11-29T16:23:40.682Z,96996.45
2022-11-29T16:26:23.171Z,96998.52
2022-11-29T16:28:58.226Z,96998.25
2022-11-29T16:31:38.578Z,96992.77
2022-11-29T16:34:14.486Z,96998.90
2022-11-29T16:36:44.288Z,96996.12
2022-11-29T16:39:24.316Z,97002.63
2022-11-29T16:42:10.290Z,97007.80
2022-11-29T16:44:47.274Z,97011.54
2022-11-29T16:47:23.137Z,97008.68
2022-11-29T16:50:15.324Z,97010.67
2022-11-29T16:52:45.348Z,97004.52
2022-11-29T16:55:17.348Z,97008.67
2022-11-29T16:57:48.291Z,97013.09
2022-11-29T17:00:30.949Z,97018.86
2022-11-29T17:03:01.105Z,97018.64
2022-11-29T17:05:31.448Z,97024.83
2022-11-29T17:08:01.557Z,97020.85
2022-11-29T17:10:32.970Z,97018.61
2022-11-29T17:13:04.850Z,97020.67
2022-11-29T17:15:35.056Z,97015.23
2022-11-29T17:18:05.104Z,97017.39
2022-11-29T17:20:35.212Z,97015.72
2022-11-29T17:23:05.035Z,97012.55
2022-11-29T17:25:35.197Z,97009.77
2022-11-29T17:28:05.233Z,97010.45
2022-11-29T17:30:34.963Z,97010.80
2022-11-29T17:33:04.433Z,97010.77
2022-11-29T17:35:35.979Z,97008.58
2022-11-29T17:38:05.770Z,97005.17
2022-11-29T17:40:34.383Z,97008.77
2022-11-29T17:43:04.193Z,97011.23
2022-11-29T17:45:34.351Z,97011.53
2022-11-29T17:48:04.207Z,97014.25
2022-11-29T17:50:34.298Z,97018.32
2022-11-29T17:53:04.395Z,97025.23
2022-11-29T17:55:34.462Z,97023.92
2022-11-29T17:58:04.678Z,97029.39
2022-11-29T18:00:34.795Z,97027.19
2022-11-29T18:03:04.820Z,97029.30
2022-11-29T18:05:35.046Z,97032.41
2022-11-29T18:08:06.186Z,97037.27
2022-11-29T18:10:36.736Z,97034.38
2022-11-29T18:13:05.234Z,97037.02
2022-11-29T18:15:35.131Z,97036.65
2022-11-29T18:18:05.286Z,97035.17
2022-11-29T18:20:35.263Z,97038.75
2022-11-29T18:23:08.070Z,97047.68
2022-11-29T18:25:39.791Z,97053.05
2022-11-29T18:28:11.624Z,97055.35
2022-11-29T18:30:41.414Z,97052.52
2022-11-29T18:33:11.148Z,97049.59
2022-11-29T18:35:39.647Z,97045.18
2022-11-29T18:38:16.698Z,97044.81
2022-11-29T18:40:47.381Z,97046.17
2022-11-29T18:43:16.457Z,97043.45
2022-11-29T18:45:46.770Z,97040.84
2022-11-29T18:48:16.242Z,97039.20
2022-11-29T18:50:46.201Z,97043.78
2022-11-29T18:53:16.289Z,97041.58
2022-11-29T18:55:46.318Z,97037.55
2022-11-29T18:58:16.429Z,97038.89
2022-11-29T19:00:45.721Z,97035.39
2022-11-29T19:03:15.723Z,97040.03
2022-11-29T19:05:54.649Z,97035.95
2022-11-29T19:08:25.820Z,97035.33
2022-11-29T19:10:55.710Z,97036.42
2022-11-29T19:13:25.389Z,97032.54
2022-11-29T19:15:56.289Z,97030.77
2022-11-29T19:18:25.980Z,97035.36
2022-11-29T19:21:04.682Z,97037.84
2022-11-29T19:23:35.001Z,97043.79
2022-11-29T19:26:09.076Z,97047.27
2022-11-29T19:28:40.906Z,97042.15
2022-11-29T19:31:12.503Z,97042.27
2022-11-29T19:33:43.996Z,97047.64
2022-11-29T19:36:19.634Z,97047.77
2022-11-29T19:38:53.804Z,97051.42
2022-11-29T19:41:29.491Z,97057.57
2022-11-29T19:44:04.685Z,97057.39
2022-11-29T19:46:40.490Z,97060.35
2022-11-29T19:49:11.235Z,97059.96
2022-11-29T19:51:41.242Z,97059.33
2022-11-29T19:54:12.196Z,97063.18
2022-11-29T19:56:42.513Z,97063.51
2022-11-29T19:59:12.156Z,97065.85
2022-11-29T20:01:43.021Z,97062.40
2022-11-29T20:04:14.216Z,97063.66
2022-11-29T20:06:44.740Z,97063.42
2022-11-29T20:09:14.508Z,97066.16
2022-11-29T20:11:44.248Z,97063.52
2022-11-29T20:14:15.035Z,97062.08
2022-11-29T20:16:43.955Z,97065.75
2022-11-29T20:19:16.552Z,97062.66
2022-11-29T20:21:49.143Z,97060.48
2022-11-29T20:24:19.932Z,97060.75
2022-11-29T20:26:49.983Z,97054.86
2022-11-29T20:29:21.863Z,97058.83
2022-11-29T20:31:51.600Z,97060.83
2022-11-29T20:34:21.935Z,97068.27
2022-11-29T20:37:35.108Z,97055.14
2022-11-29T20:40:15.167Z,97060.38
2022-11-29T20:42:58.885Z,97060.93
2022-11-29T20:45:28.996Z,97056.21
2022-11-29T20:48:13.447Z,97055.09
2022-11-29T20:50:45.340Z,97054.27
2022-11-29T20:53:16.730Z,97051.01
2022-11-29T20:55:48.482Z,97048.41
2022-11-29T20:58:19.747Z,97050.14
2022-11-29T21:00:49.886Z,97044.47
2022-11-29T21:03:19.975Z,97049.79
2022-11-29T21:05:50.836Z,97046.58
2022-11-29T21:08:24.695Z,97044.79
2022-11-29T21:10:55.645Z,97039.90
2022-11-29T21:13:25.658Z,97039.11
2022-11-29T21:15:56.093Z,97039.13
2022-11-29T21:18:30.697Z,97044.29
2022-11-29T21:21:29.958Z,97039.91
2022-11-29T21:24:07.015Z,97043.48
2022-11-29T21:26:45.148Z,97044.80
2022-11-29T21:29:15.970Z,97043.64
2022-11-29T21:31:47.515Z,97046.76
2022-11-29T21:34:17.603Z,97048.31
2022-11-29T21:36:59.214Z,97039.78
2022-11-29T21:39:34.053Z,97041.91
2022-11-29T21:42:03.910Z,97035.40
2022-11-29T21:44:33.791Z,97036.47
2022-11-29T21:47:03.490Z,97038.40
2022-11-29T21:49:33.567Z,97034.77
2022-11-29T21:52:03.650Z,97041.02
2022-11-29T21:54:33.324Z,97044.77
2022-11-29T21:57:02.613Z,97047.70
2022-11-29T21:59:33.937Z,97044.28
2022-11-29T22:02:02.551Z,97043.74
2022-11-29T22:04:32.324Z,97044.77
2022-11-29T22:07:02.034Z,97043.05
2022-11-29T22:09:31.993Z,97041.20
2022-11-29T22:12:14.615Z,97041.91
2022-11-29T22:14:51.259Z,97041.43
2022-11-29T22:17:21.268Z,97039.21
2022-11-29T22:19:51.220Z,97036.81
2022-11-29T22:22:21.086Z,97036.41
2022-11-29T22:24:50.740Z,97039.22
2022-11-29T22:27:21.328Z,97038.17
2022-11-29T22:29:51.347Z,97035.69
2022-11-29T22:32:21.099Z,97038.27
2022-11-29T22:34:51.189Z,97037.16
2022-11-29T22:37:20.768Z,97035.51
2022-11-29T22:39:50.437Z,97032.58
2022-11-29T22:42:19.073Z,97034.09
2022-11-29T22:44:48.325Z,97033.13
2022-11-29T22:47:20.197Z,97033.61
2022-11-29T22:49:51.806Z,97031.96
2022-11-29T22:52:22.369Z,97030.66
2022-11-29T22:54:52.346Z,97026.01
2022-11-29T22:57:22.051Z,97023.70
2022-11-29T22:59:52.107Z,97023.41
2022-11-29T23:02:21.854Z,97019.33
2022-11-29T23:04:51.945Z,97018.17
2022-11-29T23:07:22.014Z,97018.07
2022-11-29T23:09:52.075Z,97019.25
2022-11-29T23:12:21.108Z,97015.66
2022-11-29T23:14:56.132Z,97019.85
2022-11-29T23:17:28.027Z,97014.38
2022-11-29T23:19:58.059Z,97016.30
2022-11-29T23:22:28.042Z,97012.81
2022-11-29T23:24:58.142Z,97016.81
2022-11-29T23:27:27.600Z,97016.80
2022-11-29T23:29:59.647Z,97016.05
2022-11-29T23:32:30.542Z,97014.46
2022-11-29T23:35:00.294Z,97013.89
2022-11-29T23:37:30.230Z,97008.98
2022-11-29T23:40:00.303Z,97009.98
2022-11-29T23:42:30.274Z,97009.65
2022-11-29T23:44:59.888Z,97007.04
2022-11-29T23:47:29.684Z,97006.11
2022-11-29T23:49:59.706Z,97005.10
2022-11-29T23:52:29.777Z,97002.36
2022-11-29T23:54:58.212Z,97000.96
2022-11-29T23:57:31.272Z,97000.70
